createdAt,value
2022-12-19T00:01:28.101Z,38.58
2022-12-19T00:06:36.124Z,36.72
2022-12-19T00:11:44.432Z,33.90
2022-12-19T00:16:49.484Z,32.80
2022-12-19T00:21:54.520Z,33.65
2022-12-19T00:27:02.579Z,33.47
2022-12-19T00:32:08.196Z,36.08
2022-12-19T00:37:13.366Z,33.90
2022-12-19T00:42:21.030Z,33.33
2022-12-19T00:47:26.048Z,33.38
2022-12-19T00:52:31.023Z,33.03
2022-12-19T00:57:40.775Z,32.45
2022-12-19T01:02:46.008Z,31.90
2022-12-19T01:07:51.193Z,35.03
2022-12-19T01:12:58.981Z,31.65
2022-12-19T01:18:04.069Z,30.13
2022-12-19T01:23:09.139Z,31.73
2022-12-19T01:28:18.182Z,32.95
2022-12-19T01:33:24.361Z,30.63
2022-12-19T01:38:29.628Z,32.75
2022-12-19T01:43:57.695Z,32.00
2022-12-19T01:49:03.528Z,32.55
2022-12-19T01:54:11.468Z,31.23
2022-12-19T01:59:22.929Z,34.85
2022-12-19T02:04:29.453Z,32.08
2022-12-19T02:09:37.950Z,33.85
2022-12-19T02:14:45.708Z,30.27
2022-12-19T02:20:22.985Z,32.05
2022-12-19T02:25:56.625Z,30.83
2022-12-19T02:31:11.885Z,26.27
2022-12-19T02:36:24.620Z,28.67
2022-12-19T02:41:43.379Z,29.05
2022-12-19T02:46:52.072Z,27.30
2022-12-19T02:51:57.121Z,28.10
2022-12-19T02:57:10.139Z,29.45
2022-12-19T03:02:23.676Z,31.45
2022-12-19T03:07:33.870Z,28.45
2022-12-19T03:12:42.652Z,26.48
2022-12-19T03:17:51.021Z,25.85
2022-12-19T03:22:56.162Z,25.40
2022-12-19T03:28:06.599Z,26.02
2022-12-19T03:33:15.204Z,26.75
2022-12-19T03:38:21.798Z,26.25
2022-12-19T03:43:27.560Z,25.38
2022-12-19T03:48:40.296Z,26.45
2022-12-19T03:53:51.761Z,24.73
2022-12-19T03:59:01.779Z,23.88
2022-12-19T04:04:11.340Z,22.40
2022-12-19T04:09:22.160Z,22.67
2022-12-19T04:14:30.744Z,21.90
2022-12-19T04:19:42.683Z,23.38
2022-12-19T04:24:48.697Z,23.35
2022-12-19T04:29:55.384Z,26.63
2022-12-19T04:35:02.985Z,23.90
2022-12-19T04:40:09.564Z,25.60
2022-12-19T04:45:14.866Z,23.13
2022-12-19T04:50:22.919Z,27.50
2022-12-19T04:55:28.025Z,25.27
2022-12-19T05:00:33.009Z,25.48
2022-12-19T05:05:40.690Z,21.77
2022-12-19T05:10:45.885Z,21.10
2022-12-19T05:15:59.585Z,22.50
2022-12-19T05:21:07.931Z,24.08
2022-12-19T05:26:14.912Z,22.15
2022-12-19T05:31:22.783Z,20.30
2022-12-19T05:36:32.633Z,22.23
2022-12-19T05:41:37.818Z,19.67
2022-12-19T05:46:42.874Z,21.40
2022-12-19T05:51:53.563Z,25.75
2022-12-19T05:56:58.481Z,24.25
2022-12-19T06:02:05.000Z,46.92
2022-12-19T06:07:16.510Z,21.38
2022-12-19T06:12:24.274Z,19.73
2022-12-19T06:17:29.536Z,21.52
2022-12-19T06:22:37.357Z,24.50
2022-12-19T06:27:42.302Z,22.70
2022-12-19T06:32:47.366Z,24.17
2022-12-19T06:38:00.741Z,19.30
2022-12-19T06:43:06.173Z,23.88
2022-12-19T06:48:11.235Z,47.53
2022-12-19T06:53:19.010Z,28.55
2022-12-19T06:58:24.589Z,19.13
2022-12-19T07:03:34.896Z,19.98
2022-12-19T07:08:42.478Z,25.70
2022-12-19T07:13:47.591Z,22.98
2022-12-19T07:18:52.663Z,26.98
2022-12-19T07:24:00.277Z,35.03
2022-12-19T07:29:05.360Z,21.10
2022-12-19T07:34:11.968Z,21.67
2022-12-19T07:39:19.668Z,27.02
2022-12-19T07:44:24.731Z,27.23
2022-12-19T07:49:30.152Z,28.92
2022-12-19T07:54:38.138Z,25.75
2022-12-19T07:59:43.146Z,30.45
2022-12-19T08:04:48.177Z,31.30
2022-12-19T08:09:56.234Z,36.08
2022-12-19T08:15:01.517Z,28.98
2022-12-19T08:20:07.105Z,31.88
2022-12-19T08:25:15.310Z,26.90
2022-12-19T08:30:21.066Z,22.63
2022-12-19T08:35:26.731Z,23.08
2022-12-19T08:40:34.736Z,20.50
2022-12-19T08:45:40.382Z,19.25
2022-12-19T08:50:53.425Z,20.40
2022-12-19T08:56:04.994Z,23.05
2022-12-19T09:01:14.794Z,20.85
2022-12-19T09:06:20.632Z,20.77
2022-12-19T09:11:28.924Z,23.77
2022-12-19T09:16:34.631Z,24.13
2022-12-19T09:21:39.863Z,34.95
2022-12-19T09:26:48.153Z,30.80
2022-12-19T09:31:56.488Z,24.65
2022-12-19T09:37:02.463Z,24.50
2022-12-19T09:42:22.186Z,21.48
2022-12-19T09:47:30.351Z,20.30
2022-12-19T09:52:39.135Z,22.35
2022-12-19T09:57:51.456Z,22.35
2022-12-19T10:03:01.999Z,22.60
2022-12-19T10:08:10.338Z,23.05
2022-12-19T10:13:27.525Z,25.58
2022-12-19T10:18:54.465Z,21.92
2022-12-19T10:24:21.306Z,24.17
2022-12-19T10:29:49.536Z,19.50
2022-12-19T10:34:56.933Z,22.75
2022-12-19T10:40:12.573Z,22.52
2022-12-19T10:45:40.336Z,22.67
2022-12-19T10:50:46.749Z,22.45
2022-12-19T10:55:54.697Z,19.35
2022-12-19T11:01:07.773Z,18.98
2022-12-19T11:06:46.515Z,17.90
2022-12-19T11:14:28.207Z,18.05
2022-12-19T11:25:54.852Z,16.00
2022-12-19T11:29:42.227Z,17.08
2022-12-19T11:30:49.022Z,15.85
2022-12-19T11:34:10.458Z,15.27
2022-12-19T11:39:20.997Z,16.48
2022-12-19T11:44:32.669Z,17.15
2022-12-19T11:49:45.585Z,18.15
2022-12-19T11:54:57.197Z,19.27
2022-12-19T12:00:05.836Z,18.45
2022-12-19T12:05:36.827Z,15.38
2022-12-19T12:15:52.268Z,19.88
2022-12-19T12:27:56.579Z,18.55
2022-12-19T12:31:47.732Z,18.90
2022-12-19T12:32:05.066Z,20.02
2022-12-19T12:35:32.822Z,19.63
2022-12-19T12:38:43.951Z,19.80
2022-12-19T12:44:03.705Z,18.92
2022-12-19T12:49:12.740Z,20.23
2022-12-19T12:54:23.005Z,16.65
2022-12-19T12:59:30.675Z,20.35
2022-12-19T13:04:38.148Z,21.40
2022-12-19T13:09:46.787Z,18.02
2022-12-19T13:14:53.916Z,21.08
2022-12-19T13:20:01.332Z,19.33
2022-12-19T13:25:46.044Z,19.38
2022-12-19T13:31:22.881Z,19.58
2022-12-19T13:39:54.166Z,20.33
2022-12-19T13:42:39.826Z,19.75
2022-12-19T13:47:48.850Z,17.25
2022-12-19T13:58:03.906Z,17.30
2022-12-19T14:03:16.176Z,17.20
2022-12-19T14:08:24.417Z,17.17
2022-12-19T14:14:00.336Z,16.92
2022-12-19T14:19:22.003Z,15.05
2022-12-19T14:24:28.620Z,14.85
2022-12-19T14:30:26.177Z,17.73
2022-12-19T14:36:06.506Z,16.15
2022-12-19T14:41:00.120Z,15.80
2022-12-19T14:52:35.347Z,19.90
2022-12-19T14:54:34.135Z,14.55
2022-12-19T14:58:16.785Z,13.98
2022-12-19T15:02:52.332Z,15.55
2022-12-19T15:08:00.207Z,14.75
2022-12-19T15:14:56.693Z,12.93
2022-12-19T15:18:52.899Z,14.30
2022-12-19T15:23:58.765Z,15.48
2022-12-19T15:29:04.853Z,13.32
2022-12-19T15:34:48.233Z,14.75
2022-12-19T15:39:51.069Z,13.57
2022-12-19T15:44:58.857Z,13.60
2022-12-19T15:50:20.289Z,15.45
2022-12-19T15:55:28.504Z,14.68
2022-12-19T16:00:37.681Z,16.58
2022-12-19T16:05:46.739Z,16.23
2022-12-19T16:16:14.746Z,14.32
2022-12-19T16:21:34.322Z,12.57
2022-12-19T16:26:41.836Z,13.75
2022-12-19T16:31:47.642Z,12.93
2022-12-19T16:36:56.240Z,11.77
2022-12-19T16:42:02.149Z,12.55
2022-12-19T16:47:08.528Z,9.70
2022-12-19T16:52:17.751Z,11.05
2022-12-19T16:57:25.662Z,9.48
2022-12-19T17:02:43.877Z,8.70
2022-12-19T17:07:53.569Z,8.98
2022-12-19T17:13:00.747Z,6.47
2022-12-19T17:18:28.147Z,9.43
2022-12-19T17:23:36.658Z,9.35
2022-12-19T17:28:42.950Z,8.23
2022-12-19T17:33:48.810Z,9.25
2022-12-19T17:38:57.140Z,9.13
2022-12-19T17:44:02.927Z,6.35
2022-12-19T17:49:08.843Z,8.27
2022-12-19T17:54:18.119Z,8.23
2022-12-19T17:59:24.425Z,10.23
2022-12-19T18:04:35.265Z,8.95
2022-12-19T18:09:44.754Z,10.00
2022-12-19T18:14:50.497Z,10.93
2022-12-19T18:19:56.351Z,6.93
2022-12-19T18:25:07.438Z,7.93
2022-12-19T18:30:17.724Z,6.97
2022-12-19T18:35:25.722Z,8.23
2022-12-19T18:40:34.336Z,7.93
2022-12-19T18:45:42.041Z,8.23
2022-12-19T18:50:48.079Z,7.78
2022-12-19T18:55:57.221Z,8.45
2022-12-19T19:01:04.157Z,8.27
2022-12-19T19:06:19.286Z,8.25
2022-12-19T19:11:28.739Z,8.07
2022-12-19T19:16:34.639Z,6.78
2022-12-19T19:21:40.477Z,6.65
2022-12-19T19:26:49.238Z,7.15
2022-12-19T19:31:55.936Z,7.95
2022-12-19T19:37:04.590Z,7.00
2022-12-19T19:42:13.914Z,7.35
2022-12-19T19:47:19.830Z,7.35
2022-12-19T19:52:25.797Z,7.30
2022-12-19T19:57:35.754Z,7.35
2022-12-19T20:02:41.667Z,7.10
2022-12-19T20:07:47.621Z,6.68
2022-12-19T20:12:56.020Z,7.18
2022-12-19T20:18:01.897Z,6.38
2022-12-19T20:23:07.720Z,6.35
2022-12-19T20:28:16.928Z,6.28
2022-12-19T20:33:23.105Z,7.10
2022-12-19T20:38:28.957Z,6.40
2022-12-19T20:43:39.899Z,8.88
2022-12-19T20:48:46.171Z,8.55
2022-12-19T20:53:53.995Z,7.13
2022-12-19T20:59:03.182Z,8.65
2022-12-19T21:04:09.368Z,6.25
2022-12-19T21:09:16.177Z,8.85
2022-12-19T21:14:24.582Z,6.65
2022-12-19T21:19:30.434Z,8.40
2022-12-19T21:24:52.270Z,7.32
2022-12-19T21:30:02.487Z,8.35
2022-12-19T21:35:10.368Z,7.75
2022-12-19T21:40:17.410Z,7.93
2022-12-19T21:45:25.885Z,9.07
2022-12-19T21:50:32.405Z,7.32
2022-12-19T21:55:38.957Z,8.45
2022-12-19T22:00:47.410Z,9.88
2022-12-19T22:05:53.224Z,9.30
2022-12-19T22:10:58.931Z,9.60
2022-12-19T22:16:07.330Z,11.30
2022-12-19T22:21:16.406Z,11.40
2022-12-19T22:26:23.671Z,10.77
2022-12-19T22:31:33.741Z,9.15
2022-12-19T22:36:40.320Z,9.63
2022-12-19T22:41:46.588Z,9.50
2022-12-19T22:46:56.418Z,7.45
2022-12-19T22:52:02.854Z,8.82
2022-12-19T22:57:09.724Z,9.18
2022-12-19T23:02:18.074Z,8.38
2022-12-19T23:07:23.388Z,8.75
2022-12-19T23:12:28.813Z,8.45
2022-12-19T23:17:36.378Z,5.93
2022-12-19T23:22:41.425Z,6.35
2022-12-19T23:27:47.420Z,7.68
2022-12-19T23:32:55.179Z,7.65
2022-12-19T23:38:00.310Z,7.10
2022-12-19T23:43:05.464Z,8.25
2022-12-19T23:48:13.772Z,7.80
2022-12-19T23:53:18.961Z,8.27
2022-12-19T23:58:25.023Z,9.13
